Time;durP1;ratioP1;P1;durP2;ratioP2;P2;SDS_P1;SDS_P2;PMS_P1;PMS_P2;Temp;Humidity;BMP_temperature;BMP_pressure;BME280_temperature;BME280_humidity;BME280_pressure;Samples;Min_cycle;Max_cycle;Signal;HPM_P1;HPM_P2
2021/12/15 00:00:00;;;;;;;13.95;11.32;;;;;;;5.16;73.13;102281.63;4930814;29;20438;-83
2021/12/15 00:02:28;;;;;;;13.68;11.82;;;;;;;4.97;73.31;102270.09;4931087;29;20113;-83
2021/12/15 00:04:56;;;;;;;13.13;11.73;;;;;;;4.72;73.01;102223.69;4930505;29;20098;-81
2021/12/15 00:07:25;;;;;;;14.80;11.48;;;;;;;4.85;73.43;102267.00;4931721;29;20043;-83
2021/12/15 00:09:52;;;;;;;12.15;10.90;;;;;;;5.13;72.92;102323.88;4930582;29;20052;-83
2021/12/15 00:12:20;;;;;;;11.75;10.55;;;;;;;5.03;73.36;102309.34;4931185;29;20159;-84
2021/12/15 00:14:47;;;;;;;16.65;11.45;;;;;;;4.82;73.28;102282.91;4932047;29;20651;-83
2021/12/15 00:17:15;;;;;;;12.82;11.43;;;;;;;4.98;73.30;102316.56;4946883;28;20083;-85
2021/12/15 00:19:43;;;;;;;13.65;11.38;;;;;;;4.76;74.15;102291.06;4930729;29;20102;-84
2021/12/15 00:22:12;;;;;;;12.80;11.50;;;;;;;4.84;74.08;102315.31;4931718;29;20047;-84
2021/12/15 00:24:39;;;;;;;17.85;12.60;;;;;;;4.78;74.13;102312.91;4931864;29;20468;-83
2021/12/15 00:27:06;;;;;;;13.07;11.43;;;;;;;4.62;74.67;102285.47;4933599;29;20055;-84
2021/12/15 00:29:34;;;;;;;15.45;11.60;;;;;;;4.76;74.94;102314.75;4920382;29;20044;-86
2021/12/15 00:32:04;;;;;;;12.85;11.27;;;;;;;4.52;74.79;102268.31;4941512;29;20142;-86
2021/12/15 00:34:37;;;;;;;14.07;11.37;;;;;;;4.83;74.34;102318.88;4921865;29;20518;-83
2021/12/15 00:37:05;;;;;;;13.98;11.32;;;;;;;4.60;74.60;102293.38;4918286;29;20562;-83
2021/12/15 00:39:32;;;;;;;16.17;11.82;;;;;;;4.23;74.42;102242.16;4916572;29;20079;-86
2021/12/15 00:42:00;;;;;;;12.68;11.35;;;;;;;4.54;74.39;102290.13;4914607;29;20144;-82
2021/12/15 00:44:27;;;;;;;14.65;11.55;;;;;;;4.49;74.19;102291.16;4913784;29;20091;-84
2021/12/15 00:46:56;;;;;;;12.40;10.60;;;;;;;4.63;74.42;102321.34;4929712;29;20090;-84
2021/12/15 00:49:23;;;;;;;13.00;11.55;;;;;;;4.12;75.02;102239.03;4913766;29;20048;-83
2021/12/15 00:51:50;;;;;;;12.43;10.70;;;;;;;4.39;75.01;102292.38;4930149;29;20051;-81
2021/12/15 00:54:18;;;;;;;11.82;10.55;;;;;;;3.51;74.88;102157.97;4931035;29;20147;-83
2021/12/15 00:56:45;;;;;;;14.10;11.70;;;;;;;4.52;74.67;102334.06;4913973;29;20362;-81
2021/12/15 00:59:12;;;;;;;14.48;11.70;;;;;;;4.41;75.10;102323.91;4913785;29;20421;-83
2021/12/15 01:01:39;;;;;;;16.33;11.47;;;;;;;4.35;75.35;102313.63;4913453;29;20543;-83
2021/12/15 01:04:09;;;;;;;12.48;11.18;;;;;;;4.37;75.45;102331.06;4929621;29;20396;-82
2021/12/15 01:06:38;;;;;;;13.82;11.07;;;;;;;4.07;75.13;102275.13;4913815;29;20615;-81
2021/12/15 01:09:12;;;;;;;12.20;10.40;;;;;;;4.48;75.23;102338.56;4914377;29;20494;-83
2021/12/15 01:12:10;;;;;;;12.60;10.40;;;;;;;4.35;75.36;102311.00;4930774;29;20419;-83
2021/12/15 01:20:28;;;;;;;11.85;9.63;;;;;;;3.50;75.50;102177.28;4936621;29;20488;-84
2021/12/15 01:22:58;;;;;;;12.03;10.20;;;;;;;4.41;75.03;102330.00;4917519;29;20059;-81
2021/12/15 01:25:27;;;;;;;13.65;11.55;;;;;;;4.10;75.08;102282.06;4913675;29;20142;-83
2021/12/15 01:27:54;;;;;;;14.10;11.17;;;;;;;4.33;75.65;102325.97;4929890;29;20526;-81
2021/12/15 01:30:25;;;;;;;12.50;10.60;;;;;;;4.50;75.34;102345.47;4913328;29;20059;-82
2021/12/15 01:32:53;;;;;;;13.25;11.10;;;;;;;4.46;74.94;102349.13;4913138;29;20502;-83
2021/12/15 01:35:20;;;;;;;11.68;10.45;;;;;;;4.33;75.54;102332.06;4929045;29;20328;-84
2021/12/15 01:37:53;;;;;;;11.60;10.40;;;;;;;4.45;75.05;102342.16;4913119;29;20059;-82
2021/12/15 01:40:32;;;;;;;12.70;10.70;;;;;;;4.49;74.37;102335.88;4928872;29;20047;-82
2021/12/15 01:43:26;;;;;;;14.17;11.57;;;;;;;3.99;74.29;102243.88;4913074;29;20050;-85
2021/12/15 01:48:42;;;;;;;12.70;11.35;;;;;;;4.46;74.73;102337.75;4929966;29;20047;-80
2021/12/15 01:51:11;;;;;;;11.98;10.60;;;;;;;4.38;74.95;102334.53;4930073;29;20056;-81
2021/12/15 01:53:38;;;;;;;13.40;11.15;;;;;;;4.32;75.05;102332.09;4929489;29;20221;-82
2021/12/15 01:56:06;;;;;;;10.52;9.52;;;;;;;4.26;74.65;102344.56;4913014;29;20052;-85
2021/12/15 01:58:33;;;;;;;11.52;10.35;;;;;;;3.98;74.94;102326.25;4912892;29;20058;-83
2021/12/15 02:01:06;;;;;;;12.63;11.03;;;;;;;4.12;75.70;102332.81;4928514;29;20060;-82
2021/12/15 02:03:34;;;;;;;13.68;11.45;;;;;;;4.09;75.15;102348.69;4927940;29;20142;-83
2021/12/15 02:06:02;;;;;;;11.53;10.43;;;;;;;3.77;75.14;102311.22;4928554;29;20059;-82
2021/12/15 02:08:29;;;;;;;12.63;10.93;;;;;;;3.81;75.96;102318.94;4913287;29;20142;-82
2021/12/15 02:11:00;;;;;;;12.00;10.80;;;;;;;3.04;76.13;102191.94;4913356;29;20063;-83
2021/12/15 02:13:27;;;;;;;12.17;10.67;;;;;;;3.49;76.16;102280.59;4928909;29;20052;-82
2021/12/15 02:15:57;;;;;;;11.80;10.48;;;;;;;3.96;76.33;102348.25;4929371;29;20052;-80
2021/12/15 02:18:29;;;;;;;12.50;11.17;;;;;;;3.77;75.74;102316.47;4927770;29;20412;-83
2021/12/15 02:20:59;;;;;;;13.23;11.13;;;;;;;3.99;76.04;102358.66;4912495;29;20480;-83
2021/12/15 02:23:34;;;;;;;14.47;10.70;;;;;;;3.78;76.08;102323.44;4928076;29;20139;-83
2021/12/15 02:26:03;;;;;;;12.68;10.85;;;;;;;3.99;76.32;102354.25;4912447;29;20060;-83
2021/12/15 02:28:32;;;;;;;12.70;10.63;;;;;;;3.49;75.61;102269.22;4929190;29;20314;-80
2021/12/15 02:39:14;;;;;;;12.40;10.33;;;;;;;3.99;76.41;102349.00;4930893;29;19982;-83
2021/12/15 02:41:44;;;;;;;11.83;10.20;;;;;;;3.81;75.67;102318.06;4914965;29;20048;-83
2021/12/15 02:44:15;;;;;;;13.87;10.80;;;;;;;3.97;75.16;102358.69;4932332;29;20150;-87
2021/12/15 02:46:44;;;;;;;11.73;10.53;;;;;;;3.72;76.04;102328.91;4915663;29;20126;-83
2021/12/15 02:49:15;;;;;;;14.10;11.53;;;;;;;3.28;75.83;102249.78;4930288;29;20122;-83
2021/12/15 02:51:44;;;;;;;11.90;10.67;;;;;;;3.67;75.67;102326.41;4913957;29;20500;-81
2021/12/15 02:54:13;;;;;;;12.47;11.17;;;;;;;3.72;76.21;102321.03;4912165;29;20345;-81
2021/12/15 02:56:41;;;;;;;15.50;11.20;;;;;;;3.96;75.68;102349.09;4912395;29;20535;-80
2021/12/15 02:59:11;;;;;;;12.70;11.30;;;;;;;4.05;75.42;102359.31;4929735;29;20258;-82
2021/12/15 03:07:03;;;;;;;12.87;10.50;;;;;;;3.90;75.59;102349.28;4932099;29;20044;-85
2021/12/15 03:17:49;;;;;;;14.67;11.90;;;;;;;3.48;75.38;102278.88;4933198;29;20071;-83
2021/12/15 03:20:16;;;;;;;12.43;11.03;;;;;;;3.06;74.42;102199.72;4916785;29;20551;-83
2021/12/15 03:22:43;;;;;;;12.40;11.07;;;;;;;4.04;74.62;102362.84;4933765;29;20464;-82
2021/12/15 03:25:12;;;;;;;12.50;11.20;;;;;;;4.05;74.73;102371.56;4915321;29;20147;-82
2021/12/15 03:33:35;;;;;;;12.20;10.43;;;;;;;3.69;75.62;102344.72;4933173;29;20434;-83
2021/12/15 03:36:10;;;;;;;;;;;;;;;3.92;75.37;102389.53;4916526;29;20152;-84
2021/12/15 03:38:42;;;;;;;11.10;10.03;;;;;;;3.97;74.84;102397.25;4916041;29;20255;-82
2021/12/15 03:41:10;;;;;;;10.63;9.63;;;;;;;3.83;74.84;102363.53;4914135;29;20077;-83
2021/12/15 03:43:38;;;;;;;11.60;9.70;;;;;;;3.25;74.51;102261.22;4915723;29;20415;-82
2021/12/15 03:46:12;;;;;;;12.30;11.00;;;;;;;3.91;74.58;102366.78;4915617;29;20055;-82
2021/12/15 03:48:42;;;;;;;12.90;10.73;;;;;;;4.04;73.59;102372.50;4915999;29;20051;-81
2021/12/15 03:51:13;;;;;;;13.10;9.80;;;;;;;4.08;73.89;102387.25;4915569;29;20048;-84
2021/12/15 03:53:42;;;;;;;11.23;9.80;;;;;;;4.09;74.68;102406.50;4932895;29;20504;-85
2021/12/15 03:56:11;;;;;;;10.33;9.33;;;;;;;3.76;73.92;102372.53;4915812;29;20043;-84
2021/12/15 03:58:37;;;;;;;12.43;10.43;;;;;;;3.83;75.00;102395.06;4915816;29;20069;-81
2021/12/15 04:01:09;;;;;;;10.53;9.53;;;;;;;3.74;74.62;102375.22;4915806;29;20293;-83
2021/12/15 04:03:40;;;;;;;10.98;9.90;;;;;;;3.76;75.09;102386.53;4932664;29;20055;-82
2021/12/15 04:06:12;;;;;;;10.67;9.63;;;;;;;3.50;74.82;102355.00;4932346;29;20057;-84
2021/12/15 04:08:40;;;;;;;11.50;10.13;;;;;;;3.73;75.45;102398.91;4915362;29;20311;-84
2021/12/15 04:11:09;;;;;;;11.33;10.23;;;;;;;3.58;75.48;102381.84;4915693;29;20047;-82
2021/12/15 04:13:37;;;;;;;11.23;9.73;;;;;;;3.32;75.33;102340.66;4915842;29;20048;-85
2021/12/15 04:16:07;;;;;;;11.27;9.67;;;;;;;3.51;75.38;102368.06;4915651;29;20101;-81
2021/12/15 04:18:36;;;;;;;13.47;10.07;;;;;;;3.54;75.93;102377.59;4932523;29;20503;-83
2021/12/15 04:21:05;;;;;;;12.00;10.80;;;;;;;1.96;75.48;102120.06;4916126;29;20138;-83
2021/12/15 04:23:32;;;;;;;11.73;10.53;;;;;;;3.34;76.26;102347.56;4933143;29;20142;-84
2021/12/15 04:25:59;;;;;;;11.10;9.87;;;;;;;3.62;76.14;102397.47;4932210;29;20048;-83
2021/12/15 04:28:34;;;;;;;12.20;10.87;;;;;;;3.61;75.82;102398.38;4932243;29;20339;-83
2021/12/15 04:31:09;;;;;;;10.97;9.87;;;;;;;2.95;75.43;102273.53;4915231;29;20111;-82
2021/12/15 04:33:54;;;;;;;11.93;10.60;;;;;;;3.55;75.67;102377.56;4915494;29;20051;-82
2021/12/15 04:36:27;;;;;;;14.50;10.37;;;;;;;3.19;75.53;102314.78;4932544;29;20059;-83
2021/12/15 04:38:57;;;;;;;11.20;10.10;;;;;;;3.70;74.83;102383.25;4914963;29;20134;-83
2021/12/15 04:41:26;;;;;;;12.80;11.03;;;;;;;3.88;74.50;102398.41;4931977;29;20103;-83
2021/12/15 04:44:09;;;;;;;11.93;10.20;;;;;;;3.88;74.25;102403.66;4917087;29;20124;-83
2021/12/15 04:46:39;;;;;;;10.63;9.43;;;;;;;3.70;74.70;102385.88;4916304;29;20063;-83
2021/12/15 04:49:08;;;;;;;11.30;9.37;;;;;;;3.61;75.02;102373.88;4915853;29;20103;-84
2021/12/15 04:51:35;;;;;;;11.63;10.37;;;;;;;3.81;74.75;102403.03;4918159;29;20057;-85
2021/12/15 04:54:05;;;;;;;13.20;10.03;;;;;;;2.89;74.96;102261.47;4918068;29;20059;-84
2021/12/15 04:56:35;;;;;;;14.40;10.33;;;;;;;3.67;74.95;102391.22;4933273;29;20062;-84
2021/12/15 04:59:02;;;;;;;13.80;10.73;;;;;;;3.66;75.24;102373.72;4933053;29;20086;-82
2021/12/15 05:01:32;;;;;;;11.60;10.27;;;;;;;3.82;74.70;102385.47;4918265;29;20086;-83
2021/12/15 05:03:59;;;;;;;11.20;10.07;;;;;;;3.86;73.88;102389.75;4930228;29;20048;-82
2021/12/15 05:06:26;;;;;;;13.47;10.80;;;;;;;3.57;74.14;102346.00;4913815;29;20094;-83
2021/12/15 05:08:53;;;;;;;12.33;11.03;;;;;;;3.88;74.25;102401.03;4913859;29;20441;-83
2021/12/15 05:11:20;;;;;;;11.70;10.37;;;;;;;3.83;74.55;102405.56;4914215;29;20047;-83
2021/12/15 05:13:47;;;;;;;15.13;10.83;;;;;;;3.58;74.72;102371.34;4914107;29;20538;-82
2021/12/15 05:16:16;;;;;;;12.30;10.53;;;;;;;3.02;74.51;102279.47;4914119;29;20359;-82
2021/12/15 05:18:44;;;;;;;12.37;10.90;;;;;;;3.55;74.75;102374.94;4931208;29;20111;-83
2021/12/15 05:21:13;;;;;;;15.03;11.67;;;;;;;3.69;75.27;102405.16;4932396;29;20142;-81
2021/12/15 05:23:43;;;;;;;13.53;12.13;;;;;;;3.66;75.51;102407.88;4932154;29;20094;-84
2021/12/15 05:26:10;;;;;;;13.87;11.83;;;;;;;2.98;75.31;102294.44;4912482;29;20531;-85
2021/12/15 05:28:38;;;;;;;15.83;13.77;;;;;;;3.64;75.54;102414.06;4912245;29;20050;-81
2021/12/15 05:31:05;;;;;;;16.97;12.90;;;;;;;3.48;75.84;102391.78;4929538;29;20569;-84
2021/12/15 05:33:32;;;;;;;15.87;14.20;;;;;;;1.72;75.60;102093.66;4929929;29;20292;-81
2021/12/15 05:35:58;;;;;;;15.53;12.53;;;;;;;3.59;75.32;102407.19;4912575;29;20612;-83
2021/12/15 05:38:25;;;;;;;17.17;14.87;;;;;;;3.57;75.73;102409.03;4912668;29;20078;-82
2021/12/15 05:40:56;;;;;;;15.53;13.83;;;;;;;3.19;75.65;102350.66;4912398;29;20139;-84
2021/12/15 05:43:23;;;;;;;16.00;13.50;;;;;;;3.56;76.20;102423.91;4912120;29;20058;-80
2021/12/15 05:45:59;;;;;;;14.60;13.10;;;;;;;3.51;75.77;102420.56;4927704;29;20142;-84
2021/12/15 05:48:26;;;;;;;15.10;12.87;;;;;;;3.56;76.05;102428.31;4912334;29;20048;-85
2021/12/15 05:50:58;;;;;;;18.50;13.33;;;;;;;3.42;76.27;102412.97;4910218;29;20055;-83
2021/12/15 05:53:25;;;;;;;15.60;13.30;;;;;;;3.49;76.19;102416.28;4908928;29;20048;-80
2021/12/15 05:56:01;;;;;;;16.20;14.03;;;;;;;2.35;75.61;102231.59;4910256;29;20048;-82
2021/12/15 05:58:28;;;;;;;14.77;12.47;;;;;;;3.15;75.67;102375.28;4913618;29;20150;-84
2021/12/15 06:00:55;;;;;;;17.60;13.60;;;;;;;2.23;75.88;102213.56;4928984;29;20079;-81
2021/12/15 06:03:24;;;;;;;17.90;14.27;;;;;;;3.52;76.47;102438.06;4912080;29;20075;-86
2021/12/15 06:05:51;;;;;;;18.70;14.83;;;;;;;2.72;75.92;102298.69;4929063;29;20051;-82
2021/12/15 06:08:18;;;;;;;17.40;14.37;;;;;;;3.53;75.63;102452.91;4911831;29;20507;-82
2021/12/15 06:10:46;;;;;;;16.43;14.20;;;;;;;3.19;76.35;102383.00;4912046;29;20102;-84
2021/12/15 06:13:16;;;;;;;14.73;13.23;;;;;;;3.42;76.09;102432.22;4913146;29;20119;-86
2021/12/15 06:15:48;;;;;;;;;;;;;;;3.49;75.60;102447.78;4916904;29;20060;-84
2021/12/15 06:18:18;;;;;;;18.60;16.40;;;;;;;3.51;76.15;102441.56;4916584;29;19923;-81
2021/12/15 06:20:48;;;;;;;16.67;13.97;;;;;;;3.34;75.38;102407.09;4914716;29;20055;-84
2021/12/15 06:23:20;;;;;;;16.37;14.43;;;;;;;3.51;75.40;102456.47;4912609;29;20388;-82
2021/12/15 06:25:50;;;;;;;16.30;13.30;;;;;;;2.85;75.33;102354.28;4912869;29;20075;-83
2021/12/15 06:28:18;;;;;;;18.43;13.87;;;;;;;3.29;76.55;102441.34;4928256;29;20134;-84
2021/12/15 06:30:45;;;;;;;14.87;13.27;;;;;;;3.32;76.28;102443.03;4912508;29;20066;-82
2021/12/15 06:33:14;;;;;;;16.03;14.50;;;;;;;3.22;76.07;102432.78;4912355;29;20047;-83
2021/12/15 06:35:48;;;;;;;17.27;15.40;;;;;;;3.26;75.92;102438.81;4928387;29;20146;-82
2021/12/15 06:38:18;;;;;;;16.50;13.30;;;;;;;3.46;76.00;102459.25;4927183;29;20173;-84
2021/12/15 06:40:48;;;;;;;16.87;14.23;;;;;;;3.55;75.82;102474.72;4911933;29;20047;-81
2021/12/15 06:43:15;;;;;;;23.77;14.47;;;;;;;3.53;76.18;102465.19;4911074;29;20052;-85
2021/12/15 06:59:21;;;;;;;15.87;12.70;;;;;;;3.63;76.46;102480.59;4933162;29;20495;-82
2021/12/15 07:01:51;;;;;;;16.83;13.77;;;;;;;3.26;75.79;102415.19;4931153;29;20556;-83
2021/12/15 07:04:20;;;;;;;16.77;14.00;;;;;;;3.52;75.57;102453.81;4931355;29;20530;-84
2021/12/15 07:06:49;;;;;;;16.33;14.40;;;;;;;3.19;75.58;102405.78;4915413;29;20105;-84
2021/12/15 07:09:18;;;;;;;15.27;13.60;;;;;;;3.74;76.02;102501.31;4915510;29;20426;-83
2021/12/15 07:11:45;;;;;;;16.73;13.33;;;;;;;3.69;76.13;102466.44;4915015;29;20170;-85
2021/12/15 07:14:22;;;;;;;23.37;14.50;;;;;;;3.78;76.08;102492.41;4898345;29;20527;-86
2021/12/15 07:16:51;;;;;;;15.97;14.30;;;;;;;2.78;76.05;102332.59;4930292;29;20064;-84
2021/12/15 07:19:30;;;;;;;15.57;13.97;;;;;;;3.59;76.18;102467.59;4914897;29;20062;-87
2021/12/15 07:22:16;;;;;;;15.90;14.30;;;;;;;3.73;76.13;102489.06;4933013;29;20143;-85
2021/12/15 07:24:43;;;;;;;20.23;14.10;;;;;;;3.81;76.42;102496.72;4938156;29;20052;-83
2021/12/15 07:27:10;;;;;;;16.27;13.67;;;;;;;3.51;76.42;102441.56;4933114;29;20445;-84
2021/12/15 07:29:37;;;;;;;16.37;14.60;;;;;;;3.40;76.21;102427.94;4916088;29;20488;-84
2021/12/15 07:32:04;;;;;;;15.20;13.70;;;;;;;3.41;76.56;102433.13;4915993;29;20823;-83
2021/12/15 07:34:31;;;;;;;16.43;14.03;;;;;;;3.71;76.29;102496.13;4932941;29;20052;-82
2021/12/15 07:36:58;;;;;;;16.10;14.13;;;;;;;3.73;76.29;102514.50;4916319;29;20058;-81
2021/12/15 07:39:25;;;;;;;16.80;15.10;;;;;;;3.38;76.10;102450.75;4915570;29;20052;-83
2021/12/15 07:42:02;;;;;;;15.97;14.27;;;;;;;3.82;76.21;102525.59;4915552;29;20122;-83
2021/12/15 07:44:29;;;;;;;19.67;14.07;;;;;;;3.72;76.21;102497.03;4932253;29;20592;-82
2021/12/15 07:49:42;;;;;;;17.50;14.53;;;;;;;3.95;76.30;102533.94;4930810;29;20575;-82
2021/12/15 07:52:09;;;;;;;15.43;13.83;;;;;;;4.00;75.45;102539.06;4930942;29;20568;-82
2021/12/15 07:54:36;;;;;;;15.97;13.13;;;;;;;3.96;75.74;102527.81;4914391;29;20315;-81
2021/12/15 07:57:17;;;;;;;16.13;14.43;;;;;;;4.07;75.24;102543.22;4930671;29;20478;-82
2021/12/15 07:59:45;;;;;;;15.20;13.13;;;;;;;3.98;75.41;102531.25;4930097;29;20618;-82
2021/12/15 08:02:12;;;;;;;15.50;13.87;;;;;;;4.13;75.14;102555.34;4929850;29;20087;-86
2021/12/15 08:04:39;;;;;;;17.43;12.80;;;;;;;3.98;75.15;102515.47;4931179;29;20079;-82
2021/12/15 08:07:06;;;;;;;17.03;12.50;;;;;;;4.22;75.03;102547.16;4915367;29;20709;-81
2021/12/15 08:09:33;;;;;;;20.47;12.13;;;;;;;4.21;74.58;102542.81;4915256;29;20052;-82
2021/12/15 08:12:00;;;;;;;19.00;12.50;;;;;;;4.21;74.09;102532.28;4931257;29;20456;-83
2021/12/15 08:14:29;;;;;;;13.33;11.27;;;;;;;4.26;73.73;102540.91;4932467;29;20051;-85
2021/12/15 08:16:55;;;;;;;15.30;11.07;;;;;;;4.40;73.55;102559.72;4915400;29;20094;-84
2021/12/15 08:19:22;;;;;;;17.63;11.57;;;;;;;3.97;73.62;102481.34;4915481;29;20090;-85
2021/12/15 08:21:49;;;;;;;14.93;12.55;;;;;;;4.51;73.76;102562.00;4932422;29;20539;-83
2021/12/15 08:24:16;;;;;;;12.87;11.60;;;;;;;4.57;72.70;102563.59;4931434;29;20260;-84
2021/12/15 08:26:45;;;;;;;17.53;13.27;;;;;;;4.53;73.67;102565.44;4934105;29;20079;-82
2021/12/15 08:29:14;;;;;;;14.20;12.70;;;;;;;4.62;73.57;102569.56;4915425;29;20090;-83
2021/12/15 08:31:41;;;;;;;18.03;11.97;;;;;;;4.64;73.46;102573.88;4914886;29;20052;-81
2021/12/15 08:34:08;;;;;;;14.77;13.20;;;;;;;3.94;73.05;102450.78;4915462;29;20055;-84
2021/12/15 08:36:49;;;;;;;10.73;8.90;;;;;;;4.54;72.54;102542.63;4915462;29;20134;-83
2021/12/15 08:39:36;;;;;;;8.50;7.70;;;;;;;4.76;71.59;102559.44;4931384;29;20051;-81
2021/12/15 08:42:03;;;;;;;8.68;7.70;;;;;;;4.88;71.75;102566.94;4915659;29;20132;-83
2021/12/15 08:44:29;;;;;;;8.43;7.65;;;;;;;4.58;71.87;102504.81;4935159;29;20131;-81
2021/12/15 08:46:57;;;;;;;9.27;7.90;;;;;;;4.06;70.99;102413.59;4915802;29;20143;-84
2021/12/15 08:49:24;;;;;;;13.37;8.87;;;;;;;4.78;71.33;102533.94;4931874;29;20044;-81
2021/12/15 08:51:52;;;;;;;10.65;8.00;;;;;;;4.69;71.58;102507.94;4931952;29;20071;-82
2021/12/15 08:54:21;;;;;;;11.90;9.57;;;;;;;5.18;71.67;102569.41;4914962;29;20134;-83
2021/12/15 08:56:48;;;;;;;10.73;8.90;;;;;;;5.00;71.43;102527.94;4930698;29;20067;-80
2021/12/15 08:59:15;;;;;;;13.48;9.00;;;;;;;4.67;70.54;102470.28;4931917;29;20055;-83
2021/12/15 09:01:43;;;;;;;9.02;7.00;;;;;;;5.36;69.97;102565.25;4908701;29;20113;-82
2021/12/15 09:04:12;;;;;;;8.65;6.95;;;;;;;5.45;70.50;102577.25;4893027;29;20059;-84
2021/12/15 09:06:39;;;;;;;9.63;7.50;;;;;;;5.31;69.83;102548.78;4893151;29;20084;-84
2021/12/15 09:09:09;;;;;;;8.45;6.65;;;;;;;5.55;69.58;102574.22;4911312;29;20080;-82
2021/12/15 09:11:36;;;;;;;8.95;6.97;;;;;;;5.42;69.13;102551.91;4898896;29;20056;-82
2021/12/15 09:14:06;;;;;;;7.72;7.00;;;;;;;5.54;69.42;102558.50;4898647;29;20112;-82
2021/12/15 09:16:33;;;;;;;9.55;8.18;;;;;;;5.33;70.13;102521.47;4899596;29;20107;-86
2021/12/15 09:19:01;;;;;;;10.45;9.45;;;;;;;5.52;69.50;102541.88;4898756;29;20051;-81
2021/12/15 09:21:31;;;;;;;11.43;9.48;;;;;;;5.69;69.32;102576.38;4896738;29;20366;-82
2021/12/15 09:23:59;;;;;;;13.68;10.60;;;;;;;5.77;69.54;102576.94;4893803;29;20080;-83
2021/12/15 09:26:26;;;;;;;11.95;10.75;;;;;;;5.59;69.73;102560.97;4892324;29;20084;-82
2021/12/15 09:28:54;;;;;;;14.18;10.27;;;;;;;5.43;69.58;102522.00;4894063;29;20059;-82
2021/12/15 09:31:25;;;;;;;12.10;10.20;;;;;;;5.88;69.17;102587.09;4893530;29;20052;-84
2021/12/15 09:33:55;;;;;;;10.23;9.05;;;;;;;5.87;69.36;102568.69;4893298;29;20089;-83
2021/12/15 09:36:24;;;;;;;11.60;10.25;;;;;;;6.02;68.72;102599.78;4891562;29;20422;-82
2021/12/15 09:38:56;;;;;;;12.30;11.00;;;;;;;5.48;69.39;102500.75;4891616;29;20112;-80
2021/12/15 09:41:23;;;;;;;14.87;11.17;;;;;;;5.06;68.69;102438.22;4891337;29;20055;-84
2021/12/15 09:43:53;;;;;;;16.33;11.82;;;;;;;5.89;68.88;102546.63;4891453;29;20469;-83
2021/12/15 09:47:03;;;;;;;14.65;11.70;;;;;;;5.05;68.76;102400.50;4891481;29;20080;-81
2021/12/15 10:06:07;;;;;;;15.15;13.05;;;;;;;6.49;68.14;102593.59;4930345;29;20110;-84
2021/12/15 10:19:54;;;;;;;15.38;12.98;;;;;;;6.59;68.18;102606.34;4930064;29;20716;-82
2021/12/15 10:22:43;;;;;;;16.25;14.15;;;;;;;6.49;67.72;102583.88;4931457;29;20176;-84
2021/12/15 10:25:20;;;;;;;18.80;14.60;;;;;;;6.62;67.91;102603.56;4929479;29;20089;-80
2021/12/15 10:27:55;;;;;;;16.80;15.00;;;;;;;5.48;67.63;102404.13;4914053;29;20078;-81
2021/12/15 10:30:27;;;;;;;17.60;14.68;;;;;;;6.66;67.66;102588.47;4930154;29;20044;-81
2021/12/15 10:33:15;;;;;;;17.88;14.68;;;;;;;6.73;67.51;102592.59;4912913;29;20079;-82
2021/12/15 10:36:05;;;;;;;18.58;15.02;;;;;;;5.12;67.24;102327.41;4930037;29;20304;-81
2021/12/15 10:38:44;;;;;;;18.83;16.55;;;;;;;6.09;67.20;102479.97;4913264;29;20066;-81
2021/12/15 10:41:13;;;;;;;17.63;15.68;;;;;;;6.47;67.38;102543.50;4913450;29;20110;-84
2021/12/15 10:43:52;;;;;;;17.77;15.88;;;;;;;6.12;67.46;102490.41;4913018;29;20347;-83
2021/12/15 10:46:23;;;;;;;19.92;17.75;;;;;;;5.98;68.00;102458.44;4912883;29;20106;-81
2021/12/15 10:48:53;;;;;;;22.92;19.55;;;;;;;6.89;67.37;102600.72;4913591;29;20090;-82
2021/12/15 10:51:29;;;;;;;19.92;17.90;;;;;;;6.93;67.62;102610.25;4913281;29;20051;-83
2021/12/15 10:54:03;;;;;;;28.38;18.45;;;;;;;6.68;67.41;102549.69;4913405;29;20498;-82
2021/12/15 10:56:34;;;;;;;22.33;17.25;;;;;;;6.10;67.05;102434.22;4913529;29;20051;-83
2021/12/15 10:59:09;;;;;;;23.80;19.40;;;;;;;7.16;67.49;102585.50;4930137;29;20388;-84
2021/12/15 11:01:43;;;;;;;25.33;20.88;;;;;;;6.61;66.51;102477.81;4912110;29;20051;-84
2021/12/15 11:04:39;;;;;;;23.85;21.33;;;;;;;7.51;66.19;102611.31;4911170;29;20111;-84
2021/12/15 11:07:20;;;;;;;26.70;21.27;;;;;;;6.21;66.69;102394.22;4913110;29;20338;-83
2021/12/15 11:09:47;;;;;;;28.13;22.45;;;;;;;7.49;65.70;102598.16;4913507;29;20052;-83
2021/12/15 11:12:18;;;;;;;31.27;24.27;;;;;;;7.49;66.07;102604.31;4913407;29;20263;-82
2021/12/15 11:14:50;;;;;;;26.45;23.50;;;;;;;7.38;66.17;102577.50;4915745;29;20055;-81
2021/12/15 11:17:30;;;;;;;31.98;27.00;;;;;;;6.84;65.47;102502.38;4934784;29;20107;-83
2021/12/15 11:20:30;;;;;;;34.05;28.75;;;;;;;7.48;66.30;102613.16;4917134;29;20055;-82
2021/12/15 11:23:05;;;;;;;35.50;29.08;;;;;;;7.46;66.37;102612.38;4908604;29;20071;-84
2021/12/15 11:25:47;;;;;;;35.40;31.48;;;;;;;7.48;66.88;102613.16;4918391;29;20075;-84
2021/12/15 11:28:23;;;;;;;37.33;33.28;;;;;;;7.48;66.81;102618.47;4919358;29;20044;-85
2021/12/15 11:30:58;;;;;;;37.05;33.13;;;;;;;7.46;67.31;102612.38;4917235;29;20051;-82
2021/12/15 11:33:27;;;;;;;;;;;;;;;7.41;67.75;102603.78;4936785;29;20135;-83
2021/12/15 11:35:57;;;;;;;40.05;35.88;;;;;;;7.38;67.76;102608.34;4934191;29;20148;-85
2021/12/15 11:38:34;;;;;;;41.65;36.95;;;;;;;6.76;67.77;102515.91;4915815;29;20139;-81
2021/12/15 11:41:02;;;;;;;44.92;36.67;;;;;;;7.28;68.31;102600.84;4932845;29;20470;-81
2021/12/15 11:43:39;;;;;;;44.10;39.08;;;;;;;6.93;68.41;102546.00;4915311;29;20090;-84
2021/12/15 11:46:29;;;;;;;44.80;38.47;;;;;;;7.21;68.47;102585.31;4915843;29;20483;-82
2021/12/15 11:49:04;;;;;;;42.42;37.60;;;;;;;7.24;68.62;102577.25;4915752;29;20138;-83
2021/12/15 11:51:31;;;;;;;52.50;39.13;;;;;;;6.93;68.83;102515.19;4915899;29;20421;-82
2021/12/15 11:53:58;;;;;;;44.85;39.40;;;;;;;6.89;68.38;102503.03;4932615;29;20154;-83
2021/12/15 11:56:30;;;;;;;46.08;38.30;;;;;;;7.33;67.74;102566.28;4915537;29;20484;-84
2021/12/15 11:59:20;;;;;;;45.00;38.60;;;;;;;7.31;68.14;102562.84;4915687;29;20571;-81
2021/12/15 12:01:55;;;;;;;43.72;36.58;;;;;;;7.58;67.94;102596.91;4930431;29;20531;-82
2021/12/15 12:04:24;;;;;;;39.30;34.92;;;;;;;7.61;67.57;102594.97;4914356;29;20058;-85
2021/12/15 12:07:10;;;;;;;40.90;36.65;;;;;;;7.65;67.54;102590.44;4932141;29;20062;-82
2021/12/15 12:09:39;;;;;;;42.63;36.45;;;;;;;7.66;67.16;102587.69;4932093;29;20437;-82
2021/12/15 12:12:10;;;;;;;41.63;35.25;;;;;;;6.79;67.69;102438.34;4915095;29;20052;-85
2021/12/15 12:14:39;;;;;;;39.28;34.90;;;;;;;7.40;67.01;102541.31;4914683;29;20508;-82
2021/12/15 12:17:13;;;;;;;39.45;34.25;;;;;;;7.76;66.84;102585.50;4913206;29;20060;-83
2021/12/15 12:19:47;;;;;;;38.55;33.72;;;;;;;7.79;67.70;102589.78;4914220;29;20369;-82
2021/12/15 12:22:15;;;;;;;39.80;33.70;;;;;;;7.38;67.06;102505.28;4914533;29;20052;-81
2021/12/15 12:24:44;;;;;;;37.40;32.88;;;;;;;7.87;67.29;102582.38;4915019;29;20075;-82
2021/12/15 12:27:11;;;;;;;36.35;32.47;;;;;;;7.31;66.78;102486.22;4914763;29;20464;-84
2021/12/15 12:29:39;;;;;;;37.20;32.47;;;;;;;7.28;66.81;102471.38;4914936;29;20138;-82
2021/12/15 12:32:06;;;;;;;39.38;35.08;;;;;;;7.87;67.29;102558.56;4929953;29;20143;-83
2021/12/15 12:34:32;;;;;;;40.15;35.47;;;;;;;7.29;66.98;102461.66;4931783;29;20209;-82
2021/12/15 12:36:59;;;;;;;39.17;34.65;;;;;;;6.48;66.64;102339.44;4931768;29;20538;-83
2021/12/15 12:39:35;;;;;;;40.15;34.88;;;;;;;7.57;67.32;102515.88;4914961;29;20059;-83
2021/12/15 12:42:03;;;;;;;39.00;34.83;;;;;;;7.89;67.55;102560.22;4914617;29;20481;-85
2021/12/15 12:44:34;;;;;;;39.97;35.75;;;;;;;7.99;66.83;102575.66;4930907;29;20114;-85
2021/12/15 12:47:08;;;;;;;40.23;35.90;;;;;;;7.93;67.74;102566.22;4914189;29;20079;-87
2021/12/15 12:59:21;;;;;;;44.17;39.33;;;;;;;7.92;66.50;102523.03;4931323;29;20060;-84
2021/12/15 13:00:50;;;;;;;43.28;38.55;;;;;;;7.55;66.52;102471.03;4931152;29;20051;-82
2021/12/15 13:03:22;;;;;;;45.30;38.55;;;;;;;8.16;66.99;102577.53;4930709;29;20412;-83